| Date | Time | Temp. (oF) | Dew Point (oF) | Rel. Hum. (%) | Press. (in.) | Wind Dir. | Wind Speed (mph) | Hourly Rainfall (in.) |
|
|---|---|---|---|---|---|---|---|---|---|
| 1 | 08/03 | 00:00 | 72 | 61 | 69 | 29.80 | SSW | 0 | 0.00 |
| 2 | 08/02 | 23:00 | 71 | 60 | 69 | 29.80 | SSW | 0 | 0.00 |
| 3 | 08/02 | 22:00 | 72 | 59 | 66 | 29.81 | SSW | 0 | 0.00 |
| 4 | 08/02 | 21:00 | 76 | 60 | 58 | 29.81 | SSW | 0 | 0.00 |
| 5 | 08/02 | 20:00 | 79 | 58 | 49 | 29.81 | SW | 1 | 0.00 |
| 6 | 08/02 | 19:00 | 82 | 58 | 45 | 29.80 | SW | 6 | 0.00 |
| 7 | 08/02 | 18:00 | 83 | 57 | 42 | 29.80 | S | 6 | 0.00 |
| 8 | 08/02 | 17:00 | 85 | 57 | 40 | 29.81 | SW | 4 | 0.00 |
| 9 | 08/02 | 16:00 | 85 | 57 | 39 | 29.83 | SW | 3 | 0.00 |
| 10 | 08/02 | 15:00 | 86 | 55 | 36 | 29.85 | SSW | 10 | 0.00 |
| 11 | 08/02 | 14:00 | 84 | 54 | 37 | 29.85 | SSW | 11 | 0.00 |
| 12 | 08/02 | 13:00 | 85 | 57 | 40 | 29.87 | SW | 6 | 0.00 |
| 13 | 08/02 | 12:00 | 82 | 58 | 45 | 29.88 | WSW | 5 | 0.00 |
| 14 | 08/02 | 11:00 | 81 | 62 | 53 | 29.88 | SW | 4 | 0.00 |
| 15 | 08/02 | 10:00 | 77 | 62 | 62 | 29.88 | WNW | 5 | 0.00 |
| 16 | 08/02 | 09:00 | 73 | 64 | 75 | 29.88 | NNE | 0 | 0.00 |
| 17 | 08/02 | 08:00 | 64 | 60 | 87 | 29.87 | SSE | 0 | 0.00 |
| 18 | 08/02 | 07:00 | 61 | 57 | 87 | 29.87 | S | 0 | 0.00 |
| 19 | 08/02 | 06:00 | 61 | 57 | 87 | 29.85 | S | 0 | 0.00 |
| 20 | 08/02 | 05:00 | 62 | 57 | 86 | 29.84 | SSW | 0 | 0.00 |
| 21 | 08/02 | 04:00 | 63 | 58 | 85 | 29.84 | S | 0 | 0.00 |
| 22 | 08/02 | 03:00 | 64 | 59 | 85 | 29.83 | SSW | 0 | 0.00 |
| 23 | 08/02 | 02:00 | 65 | 59 | 83 | 29.83 | S | 0 | 0.00 |
| 24 | 08/02 | 01:00 | 66 | 59 | 80 | 29.82 | SW | 0 | 0.00 |